PYRO2: Pryor Creek

Data processed at Fri Jun 05 2020 22:15


All information presented herein is the property of the government of the United States of America and may be revised or deleted at any time without prior notice.
Dissemination of this information without the expressed written consent of the Public Affairs Office, Tulsa District U.S. Army Corps of Engineers is strictly prohibited.
These data are gathered electronically and, as presented, have not undergone any form of quality control. These data are not guaranteed to be valid or correct.
Go to home page.
Go to station list.
Go to home page.

Downstream station:


Previous Day
Next Day
Current Day
    
SHEF ID:       PYRO2     Pryor Creek
STATION TYPE:  
Regulating: Stage =    21.00, Flow =     3244

               PRECIP     STAGE  RIV-FLOW   VOLTAGE  BAT-LOAD
                   in        ft       cfs      volt      volt
              Ccp-Rev   Ccp-Rev   Ccp-Rev   Ccp-Rev   Ccp-Rev
(US/Central)
06/05 00:00      0.00      7.20       106     12.97     12.81
06/05 01:00      0.00      7.19       105     12.97     12.81
06/05 02:00      0.00      7.21       107     12.89     12.81
06/05 03:00      0.00      7.20       106     12.89     12.81
06/05 04:00      0.00      7.18       104     12.89     12.73
06/05 05:00      0.00      7.20       106     12.89     12.73
06/05 06:00      0.00      7.19       105     12.81     12.73
06/05 07:00      0.00      7.20       106     12.89     12.73
06/05 08:00      0.00      7.19       105     13.05     12.81
06/05 09:00      0.00      7.18       104     13.37     13.13
06/05 10:00      0.00      7.16       102     13.53     13.37
06/05 11:00      0.00      7.14       100     13.92     13.29
06/05 12:00      0.00      7.14       100     14.32     13.21
06/05 13:00      0.00      7.13        99     14.32     13.21
06/05 14:00      0.00      7.12        99     13.68     13.37
06/05 15:00      0.00      7.12        99     14.00     13.84
06/05 16:00      0.00      7.10        97     14.00     13.84
06/05 17:00      0.00      7.09        96     14.32     13.53
06/05 18:00      0.00      7.09        96     14.32     13.29
06/05 19:00      0.00      7.08        95     13.68     13.13
06/05 20:00      0.00      7.07        94     13.05     12.97
06/05 21:00      0.00      7.04        91     12.97     12.89
06/05 22:00      ----      ----      ----      ----      ----
06/05 23:00      ----      ----      ----      ----      ----